Terminal Aerodrome Forecast
Issued by NWS Cleveland, OH

Home | Current Version | Previous Version | Graphics & Text | Print | Product List | Glossary On
Versions: 1 2 3 4 5 6 7 8 9 10 11 12 13 14 15 16 17 18 19
000
FTUS41 KCLE 221100
TAFYNG
TAF
KYNG 221120Z 2212/2312 30006KT P6SM BKN008 OVC015
      TEMPO 2212/2216 SCT008 OVC015
     FM221600 30006KT P6SM OVC015
     FM230000 28003KT P6SM SCT015 OVC035
     FM230400 30004KT P6SM OVC015=

USA.gov is the U.S. government's official web portal to all federal, state and local government web resources and services.